sensor_id;sensor_type;location;lat;lon;timestamp;P1;durP1;ratioP1;P2;durP2;ratioP2
24173;SDS011;12324;48.146;11.502;2024-02-26T00:02:09;10.07;;;4.10;;
24173;SDS011;12324;48.146;11.502;2024-02-26T00:04:35;8.38;;;4.05;;
24173;SDS011;12324;48.146;11.502;2024-02-26T00:07:02;9.90;;;4.80;;
24173;SDS011;12324;48.146;11.502;2024-02-26T00:09:29;9.73;;;4.55;;
24173;SDS011;12324;48.146;11.502;2024-02-26T00:11:56;8.80;;;3.88;;
24173;SDS011;12324;48.146;11.502;2024-02-26T00:14:24;9.00;;;3.92;;
24173;SDS011;12324;48.146;11.502;2024-02-26T00:16:51;9.30;;;3.97;;
24173;SDS011;12324;48.146;11.502;2024-02-26T00:19:17;10.23;;;4.22;;
24173;SDS011;12324;48.146;11.502;2024-02-26T00:21:44;7.90;;;3.80;;
24173;SDS011;12324;48.146;11.502;2024-02-26T00:24:11;8.45;;;3.83;;
24173;SDS011;12324;48.146;11.502;2024-02-26T00:26:38;10.90;;;3.92;;
24173;SDS011;12324;48.146;11.502;2024-02-26T00:29:05;8.30;;;3.95;;
24173;SDS011;12324;48.146;11.502;2024-02-26T00:31:32;7.40;;;3.45;;
24173;SDS011;12324;48.146;11.502;2024-02-26T00:33:58;9.88;;;4.10;;
24173;SDS011;12324;48.146;11.502;2024-02-26T00:36:25;9.82;;;3.70;;
24173;SDS011;12324;48.146;11.502;2024-02-26T00:38:52;8.90;;;3.70;;
24173;SDS011;12324;48.146;11.502;2024-02-26T00:41:19;6.80;;;3.53;;
24173;SDS011;12324;48.146;11.502;2024-02-26T00:43:46;7.88;;;3.20;;
24173;SDS011;12324;48.146;11.502;2024-02-26T00:46:13;7.63;;;3.65;;
24173;SDS011;12324;48.146;11.502;2024-02-26T00:48:40;9.18;;;3.47;;
24173;SDS011;12324;48.146;11.502;2024-02-26T00:51:08;9.13;;;3.55;;
24173;SDS011;12324;48.146;11.502;2024-02-26T00:53:35;10.98;;;3.60;;
24173;SDS011;12324;48.146;11.502;2024-02-26T00:56:02;9.52;;;3.75;;
24173;SDS011;12324;48.146;11.502;2024-02-26T00:58:30;7.18;;;3.40;;
24173;SDS011;12324;48.146;11.502;2024-02-26T01:00:57;11.20;;;3.42;;
24173;SDS011;12324;48.146;11.502;2024-02-26T01:03:24;9.10;;;4.15;;
24173;SDS011;12324;48.146;11.502;2024-02-26T01:05:51;9.40;;;4.10;;
24173;SDS011;12324;48.146;11.502;2024-02-26T01:08:23;8.68;;;3.45;;
24173;SDS011;12324;48.146;11.502;2024-02-26T01:10:50;8.40;;;3.60;;
24173;SDS011;12324;48.146;11.502;2024-02-26T01:13:18;7.82;;;3.50;;
24173;SDS011;12324;48.146;11.502;2024-02-26T01:15:45;8.15;;;3.67;;
24173;SDS011;12324;48.146;11.502;2024-02-26T01:18:12;7.72;;;3.95;;
24173;SDS011;12324;48.146;11.502;2024-02-26T01:20:40;7.72;;;3.38;;
24173;SDS011;12324;48.146;11.502;2024-02-26T01:23:07;9.15;;;3.95;;
24173;SDS011;12324;48.146;11.502;2024-02-26T01:25:34;8.02;;;3.47;;
24173;SDS011;12324;48.146;11.502;2024-02-26T01:28:01;7.35;;;3.30;;
24173;SDS011;12324;48.146;11.502;2024-02-26T01:30:29;8.48;;;3.80;;
24173;SDS011;12324;48.146;11.502;2024-02-26T01:32:56;9.15;;;3.38;;
24173;SDS011;12324;48.146;11.502;2024-02-26T01:35:23;8.32;;;3.60;;
24173;SDS011;12324;48.146;11.502;2024-02-26T01:37:51;9.38;;;3.83;;
24173;SDS011;12324;48.146;11.502;2024-02-26T01:40:18;6.45;;;3.30;;
24173;SDS011;12324;48.146;11.502;2024-02-26T01:42:46;8.35;;;3.58;;
24173;SDS011;12324;48.146;11.502;2024-02-26T01:45:15;9.70;;;4.03;;
24173;SDS011;12324;48.146;11.502;2024-02-26T01:47:51;11.30;;;3.83;;
24173;SDS011;12324;48.146;11.502;2024-02-26T01:50:19;6.72;;;3.30;;
24173;SDS011;12324;48.146;11.502;2024-02-26T01:52:46;8.45;;;3.90;;
24173;SDS011;12324;48.146;11.502;2024-02-26T01:55:15;10.82;;;4.22;;
24173;SDS011;12324;48.146;11.502;2024-02-26T01:57:44;9.13;;;3.40;;
24173;SDS011;12324;48.146;11.502;2024-02-26T02:00:12;8.65;;;3.60;;
24173;SDS011;12324;48.146;11.502;2024-02-26T02:02:40;7.82;;;3.63;;
24173;SDS011;12324;48.146;11.502;2024-02-26T02:05:08;8.10;;;3.45;;
24173;SDS011;12324;48.146;11.502;2024-02-26T02:07:36;9.38;;;3.45;;
24173;SDS011;12324;48.146;11.502;2024-02-26T02:10:03;7.78;;;3.35;;
24173;SDS011;12324;48.146;11.502;2024-02-26T02:12:32;10.15;;;3.30;;
24173;SDS011;12324;48.146;11.502;2024-02-26T02:15:00;8.18;;;3.33;;
24173;SDS011;12324;48.146;11.502;2024-02-26T02:17:28;7.85;;;3.33;;
24173;SDS011;12324;48.146;11.502;2024-02-26T02:19:54;8.05;;;3.60;;
24173;SDS011;12324;48.146;11.502;2024-02-26T02:22:22;7.80;;;3.40;;
24173;SDS011;12324;48.146;11.502;2024-02-26T02:24:49;6.60;;;3.42;;
24173;SDS011;12324;48.146;11.502;2024-02-26T02:27:18;7.53;;;3.35;;
24173;SDS011;12324;48.146;11.502;2024-02-26T02:29:46;8.57;;;3.60;;
24173;SDS011;12324;48.146;11.502;2024-02-26T02:32:13;8.75;;;3.50;;
24173;SDS011;12324;48.146;11.502;2024-02-26T02:34:42;7.50;;;3.17;;
24173;SDS011;12324;48.146;11.502;2024-02-26T02:37:09;6.70;;;3.17;;
24173;SDS011;12324;48.146;11.502;2024-02-26T02:39:35;8.43;;;3.30;;
24173;SDS011;12324;48.146;11.502;2024-02-26T02:42:02;4.85;;;2.85;;
24173;SDS011;12324;48.146;11.502;2024-02-26T02:44:29;7.00;;;3.28;;
24173;SDS011;12324;48.146;11.502;2024-02-26T02:46:56;5.82;;;3.13;;
24173;SDS011;12324;48.146;11.502;2024-02-26T02:49:23;7.60;;;3.55;;
24173;SDS011;12324;48.146;11.502;2024-02-26T02:51:50;6.50;;;3.30;;
24173;SDS011;12324;48.146;11.502;2024-02-26T02:54:17;8.20;;;3.83;;
24173;SDS011;12324;48.146;11.502;2024-02-26T02:56:44;7.78;;;3.40;;
24173;SDS011;12324;48.146;11.502;2024-02-26T02:59:11;7.90;;;3.05;;
24173;SDS011;12324;48.146;11.502;2024-02-26T03:01:37;7.40;;;3.33;;
24173;SDS011;12324;48.146;11.502;2024-02-26T03:04:04;8.23;;;3.42;;
24173;SDS011;12324;48.146;11.502;2024-02-26T03:06:31;6.97;;;3.33;;
24173;SDS011;12324;48.146;11.502;2024-02-26T03:08:58;10.45;;;3.50;;
24173;SDS011;12324;48.146;11.502;2024-02-26T03:11:25;5.93;;;2.95;;
24173;SDS011;12324;48.146;11.502;2024-02-26T03:13:52;10.43;;;3.58;;
24173;SDS011;12324;48.146;11.502;2024-02-26T03:16:19;5.63;;;3.08;;
24173;SDS011;12324;48.146;11.502;2024-02-26T03:18:46;8.30;;;3.53;;
24173;SDS011;12324;48.146;11.502;2024-02-26T03:21:13;5.13;;;2.78;;
24173;SDS011;12324;48.146;11.502;2024-02-26T03:23:40;6.70;;;3.17;;
24173;SDS011;12324;48.146;11.502;2024-02-26T03:26:07;8.15;;;2.70;;
24173;SDS011;12324;48.146;11.502;2024-02-26T03:28:35;4.75;;;2.83;;
24173;SDS011;12324;48.146;11.502;2024-02-26T03:31:01;7.20;;;2.70;;
24173;SDS011;12324;48.146;11.502;2024-02-26T03:33:28;6.97;;;3.22;;
24173;SDS011;12324;48.146;11.502;2024-02-26T03:35:56;7.72;;;3.08;;
24173;SDS011;12324;48.146;11.502;2024-02-26T03:38:22;8.13;;;3.40;;
24173;SDS011;12324;48.146;11.502;2024-02-26T03:40:49;8.25;;;3.13;;
24173;SDS011;12324;48.146;11.502;2024-02-26T03:43:16;8.10;;;3.60;;
24173;SDS011;12324;48.146;11.502;2024-02-26T03:45:43;4.85;;;2.45;;
24173;SDS011;12324;48.146;11.502;2024-02-26T03:48:10;6.93;;;3.10;;
24173;SDS011;12324;48.146;11.502;2024-02-26T03:50:37;6.57;;;3.05;;
24173;SDS011;12324;48.146;11.502;2024-02-26T03:53:03;8.80;;;3.22;;
24173;SDS011;12324;48.146;11.502;2024-02-26T03:55:30;8.18;;;3.45;;
24173;SDS011;12324;48.146;11.502;2024-02-26T03:57:57;6.05;;;2.70;;
24173;SDS011;12324;48.146;11.502;2024-02-26T04:00:24;8.45;;;3.35;;
24173;SDS011;12324;48.146;11.502;2024-02-26T04:02:53;6.97;;;3.10;;
24173;SDS011;12324;48.146;11.502;2024-02-26T04:05:20;9.73;;;3.40;;
24173;SDS011;12324;48.146;11.502;2024-02-26T04:07:47;7.88;;;3.13;;
24173;SDS011;12324;48.146;11.502;2024-02-26T04:10:13;9.93;;;3.53;;
24173;SDS011;12324;48.146;11.502;2024-02-26T04:12:43;7.63;;;3.08;;
24173;SDS011;12324;48.146;11.502;2024-02-26T04:15:10;8.43;;;3.30;;
24173;SDS011;12324;48.146;11.502;2024-02-26T04:17:37;7.25;;;3.40;;
24173;SDS011;12324;48.146;11.502;2024-02-26T04:20:05;7.25;;;3.40;;
24173;SDS011;12324;48.146;11.502;2024-02-26T04:22:32;8.25;;;3.72;;
24173;SDS011;12324;48.146;11.502;2024-02-26T04:24:59;6.80;;;3.03;;
24173;SDS011;12324;48.146;11.502;2024-02-26T04:27:26;8.18;;;3.10;;
24173;SDS011;12324;48.146;11.502;2024-02-26T04:29:53;8.20;;;3.83;;
24173;SDS011;12324;48.146;11.502;2024-02-26T04:32:20;12.05;;;3.33;;
24173;SDS011;12324;48.146;11.502;2024-02-26T04:34:47;5.25;;;2.60;;
24173;SDS011;12324;48.146;11.502;2024-02-26T04:37:14;6.70;;;3.15;;
24173;SDS011;12324;48.146;11.502;2024-02-26T04:39:41;9.15;;;3.13;;
24173;SDS011;12324;48.146;11.502;2024-02-26T04:42:07;7.75;;;3.17;;
24173;SDS011;12324;48.146;11.502;2024-02-26T04:44:34;5.32;;;2.95;;
24173;SDS011;12324;48.146;11.502;2024-02-26T04:47:01;6.47;;;2.80;;
24173;SDS011;12324;48.146;11.502;2024-02-26T04:49:28;5.90;;;2.78;;
24173;SDS011;12324;48.146;11.502;2024-02-26T04:51:55;5.93;;;2.67;;
24173;SDS011;12324;48.146;11.502;2024-02-26T04:54:22;5.10;;;2.63;;
24173;SDS011;12324;48.146;11.502;2024-02-26T04:56:49;6.30;;;2.60;;
24173;SDS011;12324;48.146;11.502;2024-02-26T04:59:17;5.30;;;2.42;;
24173;SDS011;12324;48.146;11.502;2024-02-26T05:01:44;6.15;;;2.70;;
24173;SDS011;12324;48.146;11.502;2024-02-26T05:04:12;3.92;;;2.38;;
24173;SDS011;12324;48.146;11.502;2024-02-26T05:06:39;5.47;;;2.78;;
24173;SDS011;12324;48.146;11.502;2024-02-26T05:09:06;6.20;;;2.83;;
24173;SDS011;12324;48.146;11.502;2024-02-26T05:11:34;7.72;;;2.88;;
24173;SDS011;12324;48.146;11.502;2024-02-26T05:14:01;6.43;;;2.95;;
24173;SDS011;12324;48.146;11.502;2024-02-26T05:16:28;6.25;;;2.60;;
24173;SDS011;12324;48.146;11.502;2024-02-26T05:18:57;5.22;;;2.55;;
24173;SDS011;12324;48.146;11.502;2024-02-26T05:21:24;7.25;;;3.08;;
24173;SDS011;12324;48.146;11.502;2024-02-26T05:23:52;7.80;;;2.78;;
24173;SDS011;12324;48.146;11.502;2024-02-26T05:26:22;8.05;;;2.60;;
24173;SDS011;12324;48.146;11.502;2024-02-26T05:28:49;8.25;;;2.85;;
24173;SDS011;12324;48.146;11.502;2024-02-26T05:31:17;7.07;;;2.80;;
24173;SDS011;12324;48.146;11.502;2024-02-26T05:33:45;7.95;;;3.03;;
24173;SDS011;12324;48.146;11.502;2024-02-26T05:36:17;6.00;;;2.75;;
24173;SDS011;12324;48.146;11.502;2024-02-26T05:38:45;7.22;;;2.80;;
24173;SDS011;12324;48.146;11.502;2024-02-26T05:41:12;6.85;;;2.90;;
24173;SDS011;12324;48.146;11.502;2024-02-26T05:43:40;9.15;;;3.15;;
24173;SDS011;12324;48.146;11.502;2024-02-26T05:46:08;9.30;;;3.05;;
24173;SDS011;12324;48.146;11.502;2024-02-26T05:48:35;8.48;;;2.80;;
24173;SDS011;12324;48.146;11.502;2024-02-26T05:51:02;9.60;;;2.60;;
24173;SDS011;12324;48.146;11.502;2024-02-26T05:53:31;8.30;;;2.88;;
24173;SDS011;12324;48.146;11.502;2024-02-26T05:55:58;6.57;;;2.50;;
24173;SDS011;12324;48.146;11.502;2024-02-26T05:58:25;8.52;;;3.55;;
24173;SDS011;12324;48.146;11.502;2024-02-26T06:00:52;7.55;;;2.67;;
24173;SDS011;12324;48.146;11.502;2024-02-26T06:03:19;9.40;;;2.67;;
24173;SDS011;12324;48.146;11.502;2024-02-26T06:05:47;5.97;;;2.83;;
24173;SDS011;12324;48.146;11.502;2024-02-26T06:08:14;7.68;;;2.72;;
24173;SDS011;12324;48.146;11.502;2024-02-26T06:10:41;4.72;;;2.33;;
24173;SDS011;12324;48.146;11.502;2024-02-26T06:13:08;9.20;;;2.83;;
24173;SDS011;12324;48.146;11.502;2024-02-26T06:15:36;8.32;;;3.08;;
24173;SDS011;12324;48.146;11.502;2024-02-26T06:18:03;9.57;;;2.75;;
24173;SDS011;12324;48.146;11.502;2024-02-26T06:20:30;9.57;;;2.95;;
24173;SDS011;12324;48.146;11.502;2024-02-26T06:22:57;8.68;;;2.65;;
24173;SDS011;12324;48.146;11.502;2024-02-26T06:25:24;9.13;;;2.60;;
24173;SDS011;12324;48.146;11.502;2024-02-26T06:27:52;6.45;;;2.63;;
24173;SDS011;12324;48.146;11.502;2024-02-26T06:30:19;6.70;;;2.60;;
24173;SDS011;12324;48.146;11.502;2024-02-26T06:32:46;9.32;;;2.90;;
24173;SDS011;12324;48.146;11.502;2024-02-26T06:35:14;5.57;;;2.70;;
24173;SDS011;12324;48.146;11.502;2024-02-26T06:37:41;4.10;;;2.35;;
24173;SDS011;12324;48.146;11.502;2024-02-26T06:40:08;7.38;;;2.65;;
24173;SDS011;12324;48.146;11.502;2024-02-26T06:42:35;5.00;;;2.28;;
24173;SDS011;12324;48.146;11.502;2024-02-26T06:45:03;8.85;;;3.22;;
24173;SDS011;12324;48.146;11.502;2024-02-26T06:47:31;6.85;;;2.90;;
24173;SDS011;12324;48.146;11.502;2024-02-26T06:49:58;5.95;;;2.88;;
24173;SDS011;12324;48.146;11.502;2024-02-26T06:52:27;7.75;;;2.78;;
24173;SDS011;12324;48.146;11.502;2024-02-26T06:54:54;9.45;;;2.63;;
24173;SDS011;12324;48.146;11.502;2024-02-26T06:57:21;8.40;;;2.88;;
24173;SDS011;12324;48.146;11.502;2024-02-26T06:59:48;6.15;;;2.75;;
24173;SDS011;12324;48.146;11.502;2024-02-26T07:02:16;6.72;;;2.97;;
24173;SDS011;12324;48.146;11.502;2024-02-26T07:04:43;6.15;;;3.08;;
24173;SDS011;12324;48.146;11.502;2024-02-26T07:07:10;9.45;;;3.30;;
24173;SDS011;12324;48.146;11.502;2024-02-26T07:09:38;7.78;;;3.40;;
24173;SDS011;12324;48.146;11.502;2024-02-26T07:12:05;9.15;;;3.83;;
24173;SDS011;12324;48.146;11.502;2024-02-26T07:14:32;10.60;;;3.90;;
24173;SDS011;12324;48.146;11.502;2024-02-26T07:16:59;11.52;;;3.95;;
24173;SDS011;12324;48.146;11.502;2024-02-26T07:19:27;9.90;;;3.97;;
24173;SDS011;12324;48.146;11.502;2024-02-26T07:21:54;14.20;;;3.63;;
24173;SDS011;12324;48.146;11.502;2024-02-26T07:24:21;10.45;;;3.67;;
24173;SDS011;12324;48.146;11.502;2024-02-26T07:26:49;10.75;;;4.00;;
24173;SDS011;12324;48.146;11.502;2024-02-26T07:29:16;11.50;;;3.58;;
24173;SDS011;12324;48.146;11.502;2024-02-26T07:31:43;13.75;;;4.18;;
24173;SDS011;12324;48.146;11.502;2024-02-26T07:34:10;13.85;;;3.70;;
24173;SDS011;12324;48.146;11.502;2024-02-26T07:36:38;9.15;;;3.70;;
24173;SDS011;12324;48.146;11.502;2024-02-26T07:39:05;10.85;;;3.75;;
24173;SDS011;12324;48.146;11.502;2024-02-26T07:41:32;9.88;;;3.72;;
24173;SDS011;12324;48.146;11.502;2024-02-26T07:43:59;18.80;;;3.85;;
24173;SDS011;12324;48.146;11.502;2024-02-26T07:46:26;11.25;;;3.75;;
24173;SDS011;12324;48.146;11.502;2024-02-26T07:48:53;11.27;;;4.28;;
24173;SDS011;12324;48.146;11.502;2024-02-26T07:51:21;11.20;;;3.90;;
24173;SDS011;12324;48.146;11.502;2024-02-26T07:53:48;17.33;;;4.55;;
24173;SDS011;12324;48.146;11.502;2024-02-26T07:56:16;12.75;;;4.30;;
24173;SDS011;12324;48.146;11.502;2024-02-26T07:58:43;15.88;;;5.60;;
24173;SDS011;12324;48.146;11.502;2024-02-26T08:01:12;22.80;;;5.13;;
24173;SDS011;12324;48.146;11.502;2024-02-26T08:03:40;13.50;;;5.22;;
24173;SDS011;12324;48.146;11.502;2024-02-26T08:06:10;14.45;;;5.10;;
24173;SDS011;12324;48.146;11.502;2024-02-26T08:08:37;19.58;;;5.10;;
24173;SDS011;12324;48.146;11.502;2024-02-26T08:11:05;19.30;;;5.30;;
24173;SDS011;12324;48.146;11.502;2024-02-26T08:13:31;14.68;;;5.00;;
24173;SDS011;12324;48.146;11.502;2024-02-26T08:15:59;19.20;;;4.90;;
24173;SDS011;12324;48.146;11.502;2024-02-26T08:18:26;13.95;;;4.90;;
24173;SDS011;12324;48.146;11.502;2024-02-26T08:20:53;19.05;;;4.97;;
24173;SDS011;12324;48.146;11.502;2024-02-26T08:23:20;17.38;;;4.80;;
24173;SDS011;12324;48.146;11.502;2024-02-26T08:25:48;17.30;;;4.90;;
24173;SDS011;12324;48.146;11.502;2024-02-26T08:28:15;14.20;;;4.95;;
24173;SDS011;12324;48.146;11.502;2024-02-26T08:30:44;17.33;;;5.30;;
24173;SDS011;12324;48.146;11.502;2024-02-26T08:33:11;12.20;;;4.68;;
24173;SDS011;12324;48.146;11.502;2024-02-26T08:35:39;12.43;;;3.65;;
24173;SDS011;12324;48.146;11.502;2024-02-26T08:38:07;18.50;;;5.15;;
24173;SDS011;12324;48.146;11.502;2024-02-26T08:40:34;17.02;;;4.30;;
24173;SDS011;12324;48.146;11.502;2024-02-26T08:43:01;14.50;;;4.63;;
24173;SDS011;12324;48.146;11.502;2024-02-26T08:45:28;15.98;;;5.32;;
24173;SDS011;12324;48.146;11.502;2024-02-26T08:47:56;20.00;;;6.38;;
24173;SDS011;12324;48.146;11.502;2024-02-26T08:50:24;17.50;;;5.57;;
24173;SDS011;12324;48.146;11.502;2024-02-26T08:52:52;17.95;;;5.53;;
24173;SDS011;12324;48.146;11.502;2024-02-26T08:55:19;15.93;;;5.90;;
24173;SDS011;12324;48.146;11.502;2024-02-26T08:57:47;18.27;;;6.07;;
24173;SDS011;12324;48.146;11.502;2024-02-26T09:00:14;16.80;;;5.63;;
24173;SDS011;12324;48.146;11.502;2024-02-26T09:02:44;16.00;;;4.90;;
24173;SDS011;12324;48.146;11.502;2024-02-26T09:05:11;14.70;;;5.68;;
24173;SDS011;12324;48.146;11.502;2024-02-26T09:07:38;16.00;;;5.28;;
24173;SDS011;12324;48.146;11.502;2024-02-26T09:10:05;13.65;;;4.93;;
24173;SDS011;12324;48.146;11.502;2024-02-26T09:12:35;19.15;;;5.40;;
24173;SDS011;12324;48.146;11.502;2024-02-26T09:15:03;16.63;;;5.88;;
24173;SDS011;12324;48.146;11.502;2024-02-26T09:17:30;20.08;;;5.22;;
24173;SDS011;12324;48.146;11.502;2024-02-26T09:19:57;17.35;;;5.07;;
24173;SDS011;12324;48.146;11.502;2024-02-26T09:22:24;15.00;;;4.57;;
24173;SDS011;12324;48.146;11.502;2024-02-26T09:24:51;16.33;;;4.30;;
24173;SDS011;12324;48.146;11.502;2024-02-26T09:27:19;12.98;;;4.80;;
24173;SDS011;12324;48.146;11.502;2024-02-26T09:29:47;11.52;;;4.38;;
24173;SDS011;12324;48.146;11.502;2024-02-26T09:32:14;12.80;;;4.75;;
24173;SDS011;12324;48.146;11.502;2024-02-26T09:34:42;14.68;;;4.15;;
24173;SDS011;12324;48.146;11.502;2024-02-26T09:37:09;15.23;;;4.32;;
24173;SDS011;12324;48.146;11.502;2024-02-26T09:39:46;13.88;;;4.10;;
24173;SDS011;12324;48.146;11.502;2024-02-26T09:42:14;11.02;;;4.28;;
24173;SDS011;12324;48.146;11.502;2024-02-26T09:44:44;16.55;;;5.18;;
24173;SDS011;12324;48.146;11.502;2024-02-26T09:47:12;15.50;;;4.82;;
24173;SDS011;12324;48.146;11.502;2024-02-26T09:49:43;13.65;;;4.15;;
24173;SDS011;12324;48.146;11.502;2024-02-26T09:52:10;12.27;;;4.00;;
24173;SDS011;12324;48.146;11.502;2024-02-26T09:54:38;11.95;;;4.10;;
24173;SDS011;12324;48.146;11.502;2024-02-26T09:57:07;13.15;;;3.88;;
24173;SDS011;12324;48.146;11.502;2024-02-26T09:59:41;10.27;;;3.65;;
24173;SDS011;12324;48.146;11.502;2024-02-26T10:02:11;11.55;;;3.58;;
24173;SDS011;12324;48.146;11.502;2024-02-26T10:04:42;9.20;;;2.70;;
24173;SDS011;12324;48.146;11.502;2024-02-26T10:07:15;7.45;;;2.90;;
24173;SDS011;12324;48.146;11.502;2024-02-26T10:09:43;12.27;;;3.25;;
24173;SDS011;12324;48.146;11.502;2024-02-26T10:12:10;12.18;;;3.53;;
24173;SDS011;12324;48.146;11.502;2024-02-26T10:14:38;7.30;;;2.42;;
24173;SDS011;12324;48.146;11.502;2024-02-26T10:17:08;8.73;;;2.72;;
24173;SDS011;12324;48.146;11.502;2024-02-26T10:19:38;8.85;;;2.60;;
24173;SDS011;12324;48.146;11.502;2024-02-26T10:22:05;5.10;;;2.45;;
24173;SDS011;12324;48.146;11.502;2024-02-26T10:24:32;8.70;;;3.42;;
24173;SDS011;12324;48.146;11.502;2024-02-26T10:27:03;7.95;;;2.95;;
24173;SDS011;12324;48.146;11.502;2024-02-26T10:29:30;10.18;;;3.65;;
24173;SDS011;12324;48.146;11.502;2024-02-26T10:31:58;8.55;;;3.03;;
24173;SDS011;12324;48.146;11.502;2024-02-26T10:34:25;8.80;;;2.85;;
24173;SDS011;12324;48.146;11.502;2024-02-26T10:36:53;5.18;;;2.83;;
24173;SDS011;12324;48.146;11.502;2024-02-26T10:39:21;6.55;;;2.80;;
24173;SDS011;12324;48.146;11.502;2024-02-26T10:41:48;5.38;;;2.50;;
24173;SDS011;12324;48.146;11.502;2024-02-26T10:44:15;8.45;;;2.42;;
24173;SDS011;12324;48.146;11.502;2024-02-26T10:46:46;4.95;;;2.40;;
24173;SDS011;12324;48.146;11.502;2024-02-26T10:49:15;5.43;;;2.45;;
24173;SDS011;12324;48.146;11.502;2024-02-26T10:51:45;6.85;;;2.30;;
24173;SDS011;12324;48.146;11.502;2024-02-26T10:54:18;4.75;;;1.98;;
24173;SDS011;12324;48.146;11.502;2024-02-26T10:56:46;9.80;;;2.47;;
24173;SDS011;12324;48.146;11.502;2024-02-26T10:59:15;7.45;;;2.38;;
24173;SDS011;12324;48.146;11.502;2024-02-26T11:01:47;4.00;;;2.00;;
24173;SDS011;12324;48.146;11.502;2024-02-26T11:04:16;5.00;;;2.17;;
24173;SDS011;12324;48.146;11.502;2024-02-26T11:06:44;5.30;;;2.13;;
24173;SDS011;12324;48.146;11.502;2024-02-26T11:09:13;4.90;;;1.60;;
24173;SDS011;12324;48.146;11.502;2024-02-26T11:11:41;4.45;;;1.80;;
24173;SDS011;12324;48.146;11.502;2024-02-26T11:14:09;4.82;;;2.10;;
24173;SDS011;12324;48.146;11.502;2024-02-26T11:16:37;6.90;;;2.22;;
24173;SDS011;12324;48.146;11.502;2024-02-26T11:19:08;7.75;;;1.77;;
24173;SDS011;12324;48.146;11.502;2024-02-26T11:21:37;2.40;;;1.50;;
24173;SDS011;12324;48.146;11.502;2024-02-26T11:24:09;3.22;;;1.50;;
24173;SDS011;12324;48.146;11.502;2024-02-26T11:26:42;4.30;;;1.85;;
24173;SDS011;12324;48.146;11.502;2024-02-26T11:29:12;5.28;;;2.13;;
24173;SDS011;12324;48.146;11.502;2024-02-26T11:31:40;4.20;;;2.15;;
24173;SDS011;12324;48.146;11.502;2024-02-26T11:34:08;3.80;;;1.50;;
24173;SDS011;12324;48.146;11.502;2024-02-26T11:36:36;2.83;;;1.58;;
24173;SDS011;12324;48.146;11.502;2024-02-26T11:39:04;4.75;;;1.65;;
24173;SDS011;12324;48.146;11.502;2024-02-26T11:41:31;2.72;;;1.58;;
24173;SDS011;12324;48.146;11.502;2024-02-26T11:44:00;5.53;;;1.73;;
24173;SDS011;12324;48.146;11.502;2024-02-26T11:46:28;5.75;;;1.52;;
24173;SDS011;12324;48.146;11.502;2024-02-26T11:48:58;4.10;;;1.50;;
24173;SDS011;12324;48.146;11.502;2024-02-26T11:51:26;5.15;;;2.13;;
24173;SDS011;12324;48.146;11.502;2024-02-26T11:53:54;4.82;;;2.15;;
24173;SDS011;12324;48.146;11.502;2024-02-26T11:56:23;4.05;;;1.60;;
24173;SDS011;12324;48.146;11.502;2024-02-26T11:58:57;4.75;;;1.80;;
24173;SDS011;12324;48.146;11.502;2024-02-26T12:04:11;4.60;;;1.65;;
24173;SDS011;12324;48.146;11.502;2024-02-26T12:06:46;7.28;;;1.90;;
24173;SDS011;12324;48.146;11.502;2024-02-26T12:09:17;4.32;;;1.83;;
24173;SDS011;12324;48.146;11.502;2024-02-26T12:12:01;5.53;;;1.67;;
24173;SDS011;12324;48.146;11.502;2024-02-26T12:14:29;6.68;;;1.65;;
24173;SDS011;12324;48.146;11.502;2024-02-26T12:16:56;6.45;;;1.52;;
24173;SDS011;12324;48.146;11.502;2024-02-26T12:19:24;5.03;;;2.00;;
24173;SDS011;12324;48.146;11.502;2024-02-26T12:21:52;3.67;;;1.52;;
24173;SDS011;12324;48.146;11.502;2024-02-26T12:24:21;3.78;;;1.83;;
24173;SDS011;12324;48.146;11.502;2024-02-26T12:26:48;5.68;;;1.50;;
24173;SDS011;12324;48.146;11.502;2024-02-26T12:29:15;7.60;;;1.83;;
24173;SDS011;12324;48.146;11.502;2024-02-26T12:31:42;6.82;;;1.88;;
24173;SDS011;12324;48.146;11.502;2024-02-26T12:34:10;2.10;;;1.20;;
24173;SDS011;12324;48.146;11.502;2024-02-26T12:36:38;3.58;;;1.42;;
24173;SDS011;12324;48.146;11.502;2024-02-26T12:39:06;1.60;;;1.17;;
24173;SDS011;12324;48.146;11.502;2024-02-26T12:41:34;2.63;;;1.73;;
24173;SDS011;12324;48.146;11.502;2024-02-26T12:44:01;5.00;;;1.20;;
24173;SDS011;12324;48.146;11.502;2024-02-26T12:46:28;3.30;;;1.50;;
24173;SDS011;12324;48.146;11.502;2024-02-26T12:48:56;5.60;;;1.50;;
24173;SDS011;12324;48.146;11.502;2024-02-26T12:51:25;2.42;;;1.23;;
24173;SDS011;12324;48.146;11.502;2024-02-26T12:53:53;1.88;;;1.17;;
24173;SDS011;12324;48.146;11.502;2024-02-26T12:56:22;2.83;;;1.40;;
24173;SDS011;12324;48.146;11.502;2024-02-26T12:58:50;1.27;;;1.00;;
24173;SDS011;12324;48.146;11.502;2024-02-26T13:01:19;3.78;;;1.25;;
24173;SDS011;12324;48.146;11.502;2024-02-26T13:03:48;2.47;;;1.30;;
24173;SDS011;12324;48.146;11.502;2024-02-26T13:06:17;4.78;;;1.30;;
24173;SDS011;12324;48.146;11.502;2024-02-26T13:08:45;4.20;;;1.48;;
24173;SDS011;12324;48.146;11.502;2024-02-26T13:11:13;5.03;;;1.50;;
24173;SDS011;12324;48.146;11.502;2024-02-26T13:13:41;5.22;;;2.08;;
24173;SDS011;12324;48.146;11.502;2024-02-26T13:16:10;6.50;;;1.42;;
24173;SDS011;12324;48.146;11.502;2024-02-26T13:18:40;1.60;;;1.13;;
24173;SDS011;12324;48.146;11.502;2024-02-26T13:21:11;6.40;;;2.13;;
24173;SDS011;12324;48.146;11.502;2024-02-26T13:23:39;3.60;;;1.25;;
24173;SDS011;12324;48.146;11.502;2024-02-26T13:26:07;2.25;;;1.40;;
24173;SDS011;12324;48.146;11.502;2024-02-26T13:28:34;5.95;;;1.30;;
24173;SDS011;12324;48.146;11.502;2024-02-26T13:31:01;5.20;;;1.55;;
24173;SDS011;12324;48.146;11.502;2024-02-26T13:33:30;3.65;;;1.83;;
24173;SDS011;12324;48.146;11.502;2024-02-26T13:35:58;3.33;;;1.63;;
24173;SDS011;12324;48.146;11.502;2024-02-26T13:38:26;6.05;;;1.70;;
24173;SDS011;12324;48.146;11.502;2024-02-26T13:40:54;4.95;;;1.48;;
24173;SDS011;12324;48.146;11.502;2024-02-26T13:43:21;2.85;;;1.48;;
24173;SDS011;12324;48.146;11.502;2024-02-26T13:45:48;2.60;;;1.20;;
24173;SDS011;12324;48.146;11.502;2024-02-26T13:48:15;1.98;;;1.10;;
24173;SDS011;12324;48.146;11.502;2024-02-26T13:50:43;5.35;;;1.58;;
24173;SDS011;12324;48.146;11.502;2024-02-26T13:53:12;1.83;;;1.10;;
24173;SDS011;12324;48.146;11.502;2024-02-26T13:55:40;2.65;;;1.20;;
24173;SDS011;12324;48.146;11.502;2024-02-26T13:58:11;8.07;;;1.50;;
24173;SDS011;12324;48.146;11.502;2024-02-26T14:00:39;3.90;;;1.83;;
24173;SDS011;12324;48.146;11.502;2024-02-26T14:03:08;3.17;;;1.50;;
24173;SDS011;12324;48.146;11.502;2024-02-26T14:05:36;6.55;;;1.73;;
24173;SDS011;12324;48.146;11.502;2024-02-26T14:08:03;2.67;;;1.23;;
24173;SDS011;12324;48.146;11.502;2024-02-26T14:10:31;4.35;;;1.38;;
24173;SDS011;12324;48.146;11.502;2024-02-26T14:12:58;2.35;;;1.13;;
24173;SDS011;12324;48.146;11.502;2024-02-26T14:15:26;4.93;;;1.25;;
24173;SDS011;12324;48.146;11.502;2024-02-26T14:17:55;3.28;;;1.75;;
24173;SDS011;12324;48.146;11.502;2024-02-26T14:20:25;1.98;;;1.20;;
24173;SDS011;12324;48.146;11.502;2024-02-26T14:22:52;6.35;;;2.58;;
24173;SDS011;12324;48.146;11.502;2024-02-26T14:25:20;2.58;;;1.17;;
24173;SDS011;12324;48.146;11.502;2024-02-26T14:27:48;7.40;;;2.05;;
24173;SDS011;12324;48.146;11.502;2024-02-26T14:30:15;6.85;;;1.63;;
24173;SDS011;12324;48.146;11.502;2024-02-26T14:32:41;5.32;;;1.52;;
24173;SDS011;12324;48.146;11.502;2024-02-26T14:35:09;5.22;;;1.58;;
24173;SDS011;12324;48.146;11.502;2024-02-26T14:37:42;4.32;;;1.80;;